sensor_id;sensor_type;location;lat;lon;timestamp;temperature;humidity
15133;DHT22;7667;51.232;17.110;2023-05-10T00:01:45;6.60;99.90
15133;DHT22;7667;51.232;17.110;2023-05-10T00:04:13;6.60;99.90
15133;DHT22;7667;51.232;17.110;2023-05-10T00:06:41;6.50;99.90
15133;DHT22;7667;51.232;17.110;2023-05-10T00:09:09;6.40;99.90
15133;DHT22;7667;51.232;17.110;2023-05-10T00:11:36;6.40;99.90
15133;DHT22;7667;51.232;17.110;2023-05-10T00:14:04;6.30;99.90
15133;DHT22;7667;51.232;17.110;2023-05-10T00:16:32;6.30;99.90
15133;DHT22;7667;51.232;17.110;2023-05-10T00:18:59;6.20;99.90
15133;DHT22;7667;51.232;17.110;2023-05-10T00:21:27;6.20;99.90
15133;DHT22;7667;51.232;17.110;2023-05-10T00:23:55;6.10;99.90
15133;DHT22;7667;51.232;17.110;2023-05-10T00:26:22;6.10;99.90
15133;DHT22;7667;51.232;17.110;2023-05-10T00:28:50;6.10;99.90
15133;DHT22;7667;51.232;17.110;2023-05-10T00:31:18;6.10;99.90
15133;DHT22;7667;51.232;17.110;2023-05-10T00:33:45;6.20;99.90
15133;DHT22;7667;51.232;17.110;2023-05-10T00:36:13;6.20;99.90
15133;DHT22;7667;51.232;17.110;2023-05-10T00:38:40;6.20;99.90
15133;DHT22;7667;51.232;17.110;2023-05-10T00:41:08;6.10;99.90
15133;DHT22;7667;51.232;17.110;2023-05-10T00:43:36;6.10;99.90
15133;DHT22;7667;51.232;17.110;2023-05-10T00:46:04;6.10;99.90
15133;DHT22;7667;51.232;17.110;2023-05-10T00:48:32;6.10;99.90
15133;DHT22;7667;51.232;17.110;2023-05-10T00:51:01;6.10;99.90
15133;DHT22;7667;51.232;17.110;2023-05-10T00:53:31;6.10;99.90
15133;DHT22;7667;51.232;17.110;2023-05-10T00:56:00;6.10;99.90
15133;DHT22;7667;51.232;17.110;2023-05-10T00:58:28;6.10;99.90
15133;DHT22;7667;51.232;17.110;2023-05-10T01:00:56;6.10;99.90
15133;DHT22;7667;51.232;17.110;2023-05-10T01:03:25;6.00;99.90
15133;DHT22;7667;51.232;17.110;2023-05-10T01:05:53;6.00;99.90
15133;DHT22;7667;51.232;17.110;2023-05-10T01:08:21;6.00;99.90
15133;DHT22;7667;51.232;17.110;2023-05-10T01:10:49;5.90;99.90
15133;DHT22;7667;51.232;17.110;2023-05-10T01:13:36;5.90;99.90
15133;DHT22;7667;51.232;17.110;2023-05-10T01:16:05;5.80;99.90
15133;DHT22;7667;51.232;17.110;2023-05-10T01:18:39;5.80;99.90
15133;DHT22;7667;51.232;17.110;2023-05-10T01:21:15;5.80;99.90
15133;DHT22;7667;51.232;17.110;2023-05-10T01:36:45;5.60;99.90
15133;DHT22;7667;51.232;17.110;2023-05-10T01:39:34;5.50;99.90
15133;DHT22;7667;51.232;17.110;2023-05-10T01:42:17;5.50;99.90
15133;DHT22;7667;51.232;17.110;2023-05-10T01:45:16;5.40;99.90
15133;DHT22;7667;51.232;17.110;2023-05-10T01:47:51;5.30;99.90
15133;DHT22;7667;51.232;17.110;2023-05-10T01:50:29;5.30;99.90
15133;DHT22;7667;51.232;17.110;2023-05-10T01:52:59;5.20;99.90
15133;DHT22;7667;51.232;17.110;2023-05-10T01:55:30;5.20;99.90
15133;DHT22;7667;51.232;17.110;2023-05-10T01:58:06;5.10;99.90
15133;DHT22;7667;51.232;17.110;2023-05-10T02:00:40;5.10;99.90
15133;DHT22;7667;51.232;17.110;2023-05-10T02:03:12;5.00;99.90
15133;DHT22;7667;51.232;17.110;2023-05-10T02:05:41;5.00;99.90
15133;DHT22;7667;51.232;17.110;2023-05-10T02:08:13;5.00;99.90
15133;DHT22;7667;51.232;17.110;2023-05-10T02:10:43;4.90;99.90
15133;DHT22;7667;51.232;17.110;2023-05-10T02:13:13;4.90;99.90
15133;DHT22;7667;51.232;17.110;2023-05-10T02:15:43;4.80;99.90
15133;DHT22;7667;51.232;17.110;2023-05-10T02:18:11;4.80;99.90
15133;DHT22;7667;51.232;17.110;2023-05-10T02:20:43;4.80;99.90
15133;DHT22;7667;51.232;17.110;2023-05-10T02:23:14;4.70;99.90
15133;DHT22;7667;51.232;17.110;2023-05-10T02:25:44;4.60;99.90
15133;DHT22;7667;51.232;17.110;2023-05-10T02:28:13;4.70;99.90
15133;DHT22;7667;51.232;17.110;2023-05-10T02:30:42;4.70;99.90
15133;DHT22;7667;51.232;17.110;2023-05-10T02:33:11;4.70;99.90
15133;DHT22;7667;51.232;17.110;2023-05-10T02:35:39;4.60;99.90
15133;DHT22;7667;51.232;17.110;2023-05-10T02:38:07;4.60;99.90
15133;DHT22;7667;51.232;17.110;2023-05-10T02:40:36;4.60;99.90
15133;DHT22;7667;51.232;17.110;2023-05-10T02:43:06;4.60;99.90
15133;DHT22;7667;51.232;17.110;2023-05-10T02:45:37;4.60;99.90
15133;DHT22;7667;51.232;17.110;2023-05-10T02:48:06;4.60;99.90
15133;DHT22;7667;51.232;17.110;2023-05-10T02:50:35;4.50;99.90
15133;DHT22;7667;51.232;17.110;2023-05-10T02:53:10;4.50;99.90
15133;DHT22;7667;51.232;17.110;2023-05-10T02:55:41;4.50;99.90
15133;DHT22;7667;51.232;17.110;2023-05-10T02:58:11;4.50;99.90
15133;DHT22;7667;51.232;17.110;2023-05-10T03:00:38;4.50;99.90
15133;DHT22;7667;51.232;17.110;2023-05-10T03:03:06;4.50;99.90
15133;DHT22;7667;51.232;17.110;2023-05-10T03:05:34;4.50;99.90
15133;DHT22;7667;51.232;17.110;2023-05-10T03:08:01;4.50;99.90
15133;DHT22;7667;51.232;17.110;2023-05-10T03:10:32;4.40;99.90
15133;DHT22;7667;51.232;17.110;2023-05-10T03:16:15;4.50;99.90
15133;DHT22;7667;51.232;17.110;2023-05-10T03:21:25;4.40;99.90
15133;DHT22;7667;51.232;17.110;2023-05-10T03:23:59;4.40;99.90
15133;DHT22;7667;51.232;17.110;2023-05-10T03:26:34;4.40;99.90
15133;DHT22;7667;51.232;17.110;2023-05-10T03:29:04;4.40;99.90
15133;DHT22;7667;51.232;17.110;2023-05-10T03:31:33;4.40;99.90
15133;DHT22;7667;51.232;17.110;2023-05-10T03:34:01;4.50;99.90
15133;DHT22;7667;51.232;17.110;2023-05-10T03:36:28;4.40;99.90
15133;DHT22;7667;51.232;17.110;2023-05-10T03:38:56;4.40;99.90
15133;DHT22;7667;51.232;17.110;2023-05-10T03:41:24;4.40;99.90
15133;DHT22;7667;51.232;17.110;2023-05-10T03:43:52;4.50;99.90
15133;DHT22;7667;51.232;17.110;2023-05-10T03:46:20;4.60;99.90
15133;DHT22;7667;51.232;17.110;2023-05-10T03:48:47;4.80;99.90
15133;DHT22;7667;51.232;17.110;2023-05-10T03:51:15;4.80;99.90
15133;DHT22;7667;51.232;17.110;2023-05-10T03:53:42;4.80;99.90
15133;DHT22;7667;51.232;17.110;2023-05-10T03:56:10;4.90;99.90
15133;DHT22;7667;51.232;17.110;2023-05-10T03:58:37;5.00;99.90
15133;DHT22;7667;51.232;17.110;2023-05-10T04:01:05;5.20;99.90
15133;DHT22;7667;51.232;17.110;2023-05-10T04:03:33;5.30;99.90
15133;DHT22;7667;51.232;17.110;2023-05-10T04:06:02;5.30;99.90
15133;DHT22;7667;51.232;17.110;2023-05-10T04:08:31;5.30;99.90
15133;DHT22;7667;51.232;17.110;2023-05-10T04:11:09;5.40;99.90
15133;DHT22;7667;51.232;17.110;2023-05-10T04:13:38;5.40;99.90
15133;DHT22;7667;51.232;17.110;2023-05-10T04:16:06;5.50;99.90
15133;DHT22;7667;51.232;17.110;2023-05-10T04:18:33;5.70;99.90
15133;DHT22;7667;51.232;17.110;2023-05-10T04:21:01;5.70;99.90
15133;DHT22;7667;51.232;17.110;2023-05-10T04:23:28;5.90;99.90
15133;DHT22;7667;51.232;17.110;2023-05-10T04:26:00;6.00;99.90
15133;DHT22;7667;51.232;17.110;2023-05-10T04:28:29;6.00;99.90
15133;DHT22;7667;51.232;17.110;2023-05-10T04:33:31;6.00;99.90
15133;DHT22;7667;51.232;17.110;2023-05-10T04:35:59;6.10;99.90
15133;DHT22;7667;51.232;17.110;2023-05-10T04:38:28;6.10;99.90
15133;DHT22;7667;51.232;17.110;2023-05-10T04:41:06;6.20;99.90
15133;DHT22;7667;51.232;17.110;2023-05-10T04:43:35;6.20;99.90
15133;DHT22;7667;51.232;17.110;2023-05-10T04:46:04;6.40;99.90
15133;DHT22;7667;51.232;17.110;2023-05-10T04:48:33;6.60;99.90
15133;DHT22;7667;51.232;17.110;2023-05-10T04:51:00;6.70;99.90
15133;DHT22;7667;51.232;17.110;2023-05-10T04:53:28;6.80;99.90
15133;DHT22;7667;51.232;17.110;2023-05-10T04:55:56;6.90;99.90
15133;DHT22;7667;51.232;17.110;2023-05-10T04:58:24;7.00;99.90
15133;DHT22;7667;51.232;17.110;2023-05-10T05:00:52;7.20;99.90
15133;DHT22;7667;51.232;17.110;2023-05-10T05:03:19;7.40;99.90
15133;DHT22;7667;51.232;17.110;2023-05-10T05:05:48;7.50;99.90
15133;DHT22;7667;51.232;17.110;2023-05-10T05:08:15;7.70;99.90
15133;DHT22;7667;51.232;17.110;2023-05-10T05:10:43;7.90;99.90
15133;DHT22;7667;51.232;17.110;2023-05-10T05:13:12;8.10;99.90
15133;DHT22;7667;51.232;17.110;2023-05-10T05:15:40;8.30;99.90
15133;DHT22;7667;51.232;17.110;2023-05-10T05:18:07;8.40;99.90
15133;DHT22;7667;51.232;17.110;2023-05-10T05:20:35;8.60;99.90
15133;DHT22;7667;51.232;17.110;2023-05-10T05:23:03;8.90;99.90
15133;DHT22;7667;51.232;17.110;2023-05-10T05:25:30;9.00;99.90
15133;DHT22;7667;51.232;17.110;2023-05-10T05:27:58;9.10;99.90
15133;DHT22;7667;51.232;17.110;2023-05-10T05:30:27;9.30;99.90
15133;DHT22;7667;51.232;17.110;2023-05-10T05:32:56;9.40;99.90
15133;DHT22;7667;51.232;17.110;2023-05-10T05:35:24;9.50;99.90
15133;DHT22;7667;51.232;17.110;2023-05-10T05:37:51;9.50;99.90
15133;DHT22;7667;51.232;17.110;2023-05-10T05:40:22;9.70;99.90
15133;DHT22;7667;51.232;17.110;2023-05-10T05:43:00;9.80;99.90
15133;DHT22;7667;51.232;17.110;2023-05-10T05:45:37;9.90;99.90
15133;DHT22;7667;51.232;17.110;2023-05-10T05:48:15;10.00;99.90
15133;DHT22;7667;51.232;17.110;2023-05-10T05:50:56;10.10;99.90
15133;DHT22;7667;51.232;17.110;2023-05-10T05:53:36;10.20;99.90
15133;DHT22;7667;51.232;17.110;2023-05-10T05:56:12;10.40;99.90
15133;DHT22;7667;51.232;17.110;2023-05-10T05:58:52;10.50;99.90
15133;DHT22;7667;51.232;17.110;2023-05-10T06:01:35;10.60;99.90
15133;DHT22;7667;51.232;17.110;2023-05-10T06:04:13;10.60;99.90
15133;DHT22;7667;51.232;17.110;2023-05-10T06:06:49;10.70;99.90
15133;DHT22;7667;51.232;17.110;2023-05-10T06:09:19;10.90;99.90
15133;DHT22;7667;51.232;17.110;2023-05-10T06:11:47;11.10;99.90
15133;DHT22;7667;51.232;17.110;2023-05-10T06:14:14;11.20;99.90
15133;DHT22;7667;51.232;17.110;2023-05-10T06:16:42;11.40;99.90
15133;DHT22;7667;51.232;17.110;2023-05-10T06:19:11;11.50;99.90
15133;DHT22;7667;51.232;17.110;2023-05-10T06:21:38;11.60;99.90
15133;DHT22;7667;51.232;17.110;2023-05-10T06:24:06;11.70;99.90
15133;DHT22;7667;51.232;17.110;2023-05-10T06:26:34;11.80;99.90
15133;DHT22;7667;51.232;17.110;2023-05-10T06:29:01;12.00;99.90
15133;DHT22;7667;51.232;17.110;2023-05-10T06:31:29;12.10;99.90
15133;DHT22;7667;51.232;17.110;2023-05-10T06:33:57;12.20;99.90
15133;DHT22;7667;51.232;17.110;2023-05-10T06:36:24;12.30;99.90
15133;DHT22;7667;51.232;17.110;2023-05-10T06:38:53;12.40;99.90
15133;DHT22;7667;51.232;17.110;2023-05-10T06:41:21;12.50;99.90
15133;DHT22;7667;51.232;17.110;2023-05-10T06:43:50;12.70;99.90
15133;DHT22;7667;51.232;17.110;2023-05-10T06:46:18;12.80;99.90
15133;DHT22;7667;51.232;17.110;2023-05-10T06:48:46;12.90;99.90
15133;DHT22;7667;51.232;17.110;2023-05-10T06:51:13;13.20;99.90
15133;DHT22;7667;51.232;17.110;2023-05-10T06:53:41;13.30;99.90
15133;DHT22;7667;51.232;17.110;2023-05-10T06:56:09;13.40;99.90
15133;DHT22;7667;51.232;17.110;2023-05-10T06:58:38;13.50;99.90
15133;DHT22;7667;51.232;17.110;2023-05-10T07:01:06;13.50;99.90
15133;DHT22;7667;51.232;17.110;2023-05-10T07:03:33;13.60;99.90
15133;DHT22;7667;51.232;17.110;2023-05-10T07:06:04;13.80;99.90
15133;DHT22;7667;51.232;17.110;2023-05-10T07:08:41;14.00;99.90
15133;DHT22;7667;51.232;17.110;2023-05-10T07:11:09;14.00;99.90
15133;DHT22;7667;51.232;17.110;2023-05-10T07:13:37;14.10;99.90
15133;DHT22;7667;51.232;17.110;2023-05-10T07:16:08;14.20;99.90
15133;DHT22;7667;51.232;17.110;2023-05-10T07:18:36;14.30;99.90
15133;DHT22;7667;51.232;17.110;2023-05-10T07:21:04;14.30;99.90
15133;DHT22;7667;51.232;17.110;2023-05-10T07:23:32;14.40;99.90
15133;DHT22;7667;51.232;17.110;2023-05-10T07:25:59;14.60;99.90
15133;DHT22;7667;51.232;17.110;2023-05-10T07:28:29;14.70;99.90
15133;DHT22;7667;51.232;17.110;2023-05-10T07:30:56;14.80;99.90
15133;DHT22;7667;51.232;17.110;2023-05-10T07:33:24;14.80;99.90
15133;DHT22;7667;51.232;17.110;2023-05-10T07:35:52;14.80;99.90
15133;DHT22;7667;51.232;17.110;2023-05-10T07:38:19;14.90;99.90
15133;DHT22;7667;51.232;17.110;2023-05-10T07:40:47;15.00;99.90
15133;DHT22;7667;51.232;17.110;2023-05-10T07:43:14;15.10;99.90
15133;DHT22;7667;51.232;17.110;2023-05-10T07:45:42;15.20;99.90
15133;DHT22;7667;51.232;17.110;2023-05-10T07:48:10;15.30;99.90
15133;DHT22;7667;51.232;17.110;2023-05-10T07:50:38;15.60;99.90
15133;DHT22;7667;51.232;17.110;2023-05-10T07:53:05;15.70;99.90
15133;DHT22;7667;51.232;17.110;2023-05-10T07:55:33;15.90;99.90
15133;DHT22;7667;51.232;17.110;2023-05-10T07:58:02;16.00;99.90
15133;DHT22;7667;51.232;17.110;2023-05-10T08:00:29;16.10;99.90
15133;DHT22;7667;51.232;17.110;2023-05-10T08:02:57;16.20;99.90
15133;DHT22;7667;51.232;17.110;2023-05-10T08:05:25;16.40;99.90
15133;DHT22;7667;51.232;17.110;2023-05-10T08:07:53;16.40;99.90
15133;DHT22;7667;51.232;17.110;2023-05-10T08:10:21;16.40;99.90
15133;DHT22;7667;51.232;17.110;2023-05-10T08:12:49;16.30;99.90
15133;DHT22;7667;51.232;17.110;2023-05-10T08:15:19;16.30;99.90
15133;DHT22;7667;51.232;17.110;2023-05-10T08:17:47;16.40;99.90
15133;DHT22;7667;51.232;17.110;2023-05-10T08:20:15;16.50;99.90
15133;DHT22;7667;51.232;17.110;2023-05-10T08:22:48;16.60;99.90
15133;DHT22;7667;51.232;17.110;2023-05-10T08:25:18;16.50;99.90
15133;DHT22;7667;51.232;17.110;2023-05-10T08:27:49;16.50;99.90
15133;DHT22;7667;51.232;17.110;2023-05-10T08:30:20;16.60;99.90
15133;DHT22;7667;51.232;17.110;2023-05-10T08:32:48;16.80;99.90
15133;DHT22;7667;51.232;17.110;2023-05-10T08:35:16;17.00;99.90
15133;DHT22;7667;51.232;17.110;2023-05-10T08:37:46;17.20;99.90
15133;DHT22;7667;51.232;17.110;2023-05-10T08:40:14;17.20;99.90
15133;DHT22;7667;51.232;17.110;2023-05-10T08:42:55;17.10;99.90
15133;DHT22;7667;51.232;17.110;2023-05-10T08:45:44;17.10;99.90
15133;DHT22;7667;51.232;17.110;2023-05-10T08:48:18;17.00;99.90
15133;DHT22;7667;51.232;17.110;2023-05-10T08:50:48;17.00;99.90
15133;DHT22;7667;51.232;17.110;2023-05-10T08:53:24;17.00;99.90
15133;DHT22;7667;51.232;17.110;2023-05-10T08:55:54;17.20;99.90
15133;DHT22;7667;51.232;17.110;2023-05-10T08:58:22;17.20;99.90
15133;DHT22;7667;51.232;17.110;2023-05-10T09:00:50;17.30;99.90
15133;DHT22;7667;51.232;17.110;2023-05-10T09:03:18;17.50;99.90
15133;DHT22;7667;51.232;17.110;2023-05-10T09:05:46;17.70;99.90
15133;DHT22;7667;51.232;17.110;2023-05-10T09:08:16;17.80;99.90
15133;DHT22;7667;51.232;17.110;2023-05-10T09:10:44;17.70;99.90
15133;DHT22;7667;51.232;17.110;2023-05-10T09:13:14;17.80;99.90
15133;DHT22;7667;51.232;17.110;2023-05-10T09:15:45;18.00;99.90
15133;DHT22;7667;51.232;17.110;2023-05-10T09:18:13;18.10;99.90
15133;DHT22;7667;51.232;17.110;2023-05-10T09:20:41;18.20;99.90
15133;DHT22;7667;51.232;17.110;2023-05-10T09:23:09;18.20;99.90
15133;DHT22;7667;51.232;17.110;2023-05-10T09:25:36;17.90;99.90
15133;DHT22;7667;51.232;17.110;2023-05-10T09:28:09;18.00;99.90
15133;DHT22;7667;51.232;17.110;2023-05-10T09:30:37;18.00;99.90
15133;DHT22;7667;51.232;17.110;2023-05-10T09:33:04;18.10;99.90
15133;DHT22;7667;51.232;17.110;2023-05-10T09:35:32;18.10;99.90
15133;DHT22;7667;51.232;17.110;2023-05-10T09:38:03;18.20;99.90
15133;DHT22;7667;51.232;17.110;2023-05-10T09:40:31;18.30;99.90
15133;DHT22;7667;51.232;17.110;2023-05-10T09:43:07;18.60;99.90
15133;DHT22;7667;51.232;17.110;2023-05-10T09:45:35;18.60;99.90
15133;DHT22;7667;51.232;17.110;2023-05-10T09:48:05;18.50;99.80
15133;DHT22;7667;51.232;17.110;2023-05-10T09:50:33;18.60;99.90
15133;DHT22;7667;51.232;17.110;2023-05-10T09:53:03;18.70;99.90
15133;DHT22;7667;51.232;17.110;2023-05-10T09:55:44;18.80;99.90
15133;DHT22;7667;51.232;17.110;2023-05-10T09:58:14;19.30;99.90
15133;DHT22;7667;51.232;17.110;2023-05-10T10:00:43;19.60;99.50
15133;DHT22;7667;51.232;17.110;2023-05-10T10:03:14;19.70;98.20
15133;DHT22;7667;51.232;17.110;2023-05-10T10:05:43;19.50;97.50
15133;DHT22;7667;51.232;17.110;2023-05-10T10:08:12;19.50;99.10
15133;DHT22;7667;51.232;17.110;2023-05-10T10:10:41;19.30;98.30
15133;DHT22;7667;51.232;17.110;2023-05-10T10:13:12;19.40;99.40
15133;DHT22;7667;51.232;17.110;2023-05-10T10:15:42;19.60;96.70
15133;DHT22;7667;51.232;17.110;2023-05-10T10:18:14;19.60;97.40
15133;DHT22;7667;51.232;17.110;2023-05-10T10:20:45;19.70;96.80
15133;DHT22;7667;51.232;17.110;2023-05-10T10:23:13;19.70;96.30
15133;DHT22;7667;51.232;17.110;2023-05-10T10:25:44;19.70;96.50
15133;DHT22;7667;51.232;17.110;2023-05-10T10:28:31;19.70;96.10
15133;DHT22;7667;51.232;17.110;2023-05-10T10:31:25;19.50;93.90
15133;DHT22;7667;51.232;17.110;2023-05-10T10:34:09;19.60;95.90
15133;DHT22;7667;51.232;17.110;2023-05-10T10:36:44;19.80;96.10
15133;DHT22;7667;51.232;17.110;2023-05-10T10:39:14;20.20;95.60
15133;DHT22;7667;51.232;17.110;2023-05-10T10:41:52;20.30;94.10
15133;DHT22;7667;51.232;17.110;2023-05-10T10:44:25;20.60;97.70
15133;DHT22;7667;51.232;17.110;2023-05-10T10:47:06;21.00;94.70
15133;DHT22;7667;51.232;17.110;2023-05-10T11:00:40;20.60;95.60
15133;DHT22;7667;51.232;17.110;2023-05-10T11:03:12;21.50;92.30
15133;DHT22;7667;51.232;17.110;2023-05-10T11:05:42;21.20;91.10
15133;DHT22;7667;51.232;17.110;2023-05-10T11:19:03;23.10;89.70
15133;DHT22;7667;51.232;17.110;2023-05-10T11:21:33;23.60;86.00
15133;DHT22;7667;51.232;17.110;2023-05-10T11:24:02;23.40;81.80
15133;DHT22;7667;51.232;17.110;2023-05-10T11:26:36;21.80;86.60
15133;DHT22;7667;51.232;17.110;2023-05-10T11:29:04;21.10;86.60
15133;DHT22;7667;51.232;17.110;2023-05-10T11:31:32;21.10;88.00
15133;DHT22;7667;51.232;17.110;2023-05-10T11:34:00;22.20;89.40
15133;DHT22;7667;51.232;17.110;2023-05-10T11:36:37;23.00;85.90
15133;DHT22;7667;51.232;17.110;2023-05-10T11:39:05;21.90;87.30
15133;DHT22;7667;51.232;17.110;2023-05-10T11:41:33;21.10;87.80
15133;DHT22;7667;51.232;17.110;2023-05-10T11:44:01;21.80;86.50
15133;DHT22;7667;51.232;17.110;2023-05-10T11:46:29;22.40;84.50
15133;DHT22;7667;51.232;17.110;2023-05-10T11:49:01;21.20;87.30
15133;DHT22;7667;51.232;17.110;2023-05-10T11:51:34;20.40;88.70
15133;DHT22;7667;51.232;17.110;2023-05-10T11:54:07;20.80;87.60
15133;DHT22;7667;51.232;17.110;2023-05-10T11:56:40;21.60;89.40
15133;DHT22;7667;51.232;17.110;2023-05-10T11:59:07;22.70;81.60
15133;DHT22;7667;51.232;17.110;2023-05-10T12:01:36;22.10;83.70
15133;DHT22;7667;51.232;17.110;2023-05-10T12:04:04;22.60;83.80
15133;DHT22;7667;51.232;17.110;2023-05-10T12:06:36;22.00;81.40
15133;DHT22;7667;51.232;17.110;2023-05-10T12:09:07;21.70;84.00
15133;DHT22;7667;51.232;17.110;2023-05-10T12:11:40;23.10;83.80
15133;DHT22;7667;51.232;17.110;2023-05-10T12:14:10;24.40;76.60
15133;DHT22;7667;51.232;17.110;2023-05-10T12:16:38;25.00;80.80
15133;DHT22;7667;51.232;17.110;2023-05-10T12:19:06;25.70;74.10
15133;DHT22;7667;51.232;17.110;2023-05-10T12:21:33;26.10;74.30
15133;DHT22;7667;51.232;17.110;2023-05-10T12:24:03;24.40;76.70
15133;DHT22;7667;51.232;17.110;2023-05-10T12:26:31;24.60;74.80
15133;DHT22;7667;51.232;17.110;2023-05-10T12:29:16;24.70;75.40
15133;DHT22;7667;51.232;17.110;2023-05-10T12:31:58;24.60;71.00
15133;DHT22;7667;51.232;17.110;2023-05-10T12:36:58;21.10;75.70
15133;DHT22;7667;51.232;17.110;2023-05-10T12:39:37;21.20;78.30
15133;DHT22;7667;51.232;17.110;2023-05-10T12:42:06;21.50;77.30
15133;DHT22;7667;51.232;17.110;2023-05-10T12:44:33;23.10;77.70
15133;DHT22;7667;51.232;17.110;2023-05-10T12:47:01;24.00;74.20
15133;DHT22;7667;51.232;17.110;2023-05-10T12:49:28;24.10;73.80
15133;DHT22;7667;51.232;17.110;2023-05-10T12:51:56;24.30;72.70
15133;DHT22;7667;51.232;17.110;2023-05-10T12:54:23;23.60;69.00
15133;DHT22;7667;51.232;17.110;2023-05-10T12:56:51;22.50;71.30
15133;DHT22;7667;51.232;17.110;2023-05-10T12:59:18;22.20;74.80
15133;DHT22;7667;51.232;17.110;2023-05-10T13:01:46;23.50;73.20
15133;DHT22;7667;51.232;17.110;2023-05-10T13:04:13;24.20;70.10
15133;DHT22;7667;51.232;17.110;2023-05-10T13:06:41;22.80;72.30
15133;DHT22;7667;51.232;17.110;2023-05-10T13:09:09;21.90;72.40
15133;DHT22;7667;51.232;17.110;2023-05-10T13:11:36;21.70;74.80
15133;DHT22;7667;51.232;17.110;2023-05-10T13:14:04;21.80;72.80
15133;DHT22;7667;51.232;17.110;2023-05-10T13:16:31;22.20;74.80
15133;DHT22;7667;51.232;17.110;2023-05-10T13:18:59;21.80;72.80
15133;DHT22;7667;51.232;17.110;2023-05-10T13:21:27;21.20;72.40
15133;DHT22;7667;51.232;17.110;2023-05-10T13:23:54;20.90;74.40
15133;DHT22;7667;51.232;17.110;2023-05-10T13:26:22;20.80;77.10
15133;DHT22;7667;51.232;17.110;2023-05-10T13:28:50;22.70;77.20
15133;DHT22;7667;51.232;17.110;2023-05-10T13:31:18;22.50;73.30
15133;DHT22;7667;51.232;17.110;2023-05-10T13:33:46;23.10;73.20
15133;DHT22;7667;51.232;17.110;2023-05-10T13:36:13;22.40;69.20
15133;DHT22;7667;51.232;17.110;2023-05-10T13:38:41;21.90;74.10
15133;DHT22;7667;51.232;17.110;2023-05-10T13:41:09;22.10;70.40
15133;DHT22;7667;51.232;17.110;2023-05-10T13:43:37;21.80;72.30
15133;DHT22;7667;51.232;17.110;2023-05-10T13:46:04;21.10;75.00
15133;DHT22;7667;51.232;17.110;2023-05-10T13:48:32;21.50;71.90
15133;DHT22;7667;51.232;17.110;2023-05-10T13:51:00;22.30;71.60
15133;DHT22;7667;51.232;17.110;2023-05-10T13:53:27;22.90;69.10
15133;DHT22;7667;51.232;17.110;2023-05-10T13:55:54;24.60;66.70
15133;DHT22;7667;51.232;17.110;2023-05-10T13:58:22;24.20;69.30
15133;DHT22;7667;51.232;17.110;2023-05-10T14:00:50;24.30;66.00
15133;DHT22;7667;51.232;17.110;2023-05-10T14:03:18;24.30;69.70
15133;DHT22;7667;51.232;17.110;2023-05-10T14:05:45;24.50;67.10
15133;DHT22;7667;51.232;17.110;2023-05-10T14:08:14;23.90;69.00
15133;DHT22;7667;51.232;17.110;2023-05-10T14:10:41;23.50;68.50
15133;DHT22;7667;51.232;17.110;2023-05-10T14:13:09;23.10;68.00
15133;DHT22;7667;51.232;17.110;2023-05-10T14:15:36;22.90;67.70
15133;DHT22;7667;51.232;17.110;2023-05-10T14:18:04;22.80;67.80
15133;DHT22;7667;51.232;17.110;2023-05-10T14:20:32;22.20;72.50
15133;DHT22;7667;51.232;17.110;2023-05-10T14:23:00;21.90;70.40
15133;DHT22;7667;51.232;17.110;2023-05-10T14:25:28;22.60;69.80
15133;DHT22;7667;51.232;17.110;2023-05-10T14:27:55;22.80;68.70
15133;DHT22;7667;51.232;17.110;2023-05-10T14:30:23;23.00;68.80
15133;DHT22;7667;51.232;17.110;2023-05-10T14:32:50;24.60;68.30
15133;DHT22;7667;51.232;17.110;2023-05-10T14:35:18;25.90;63.50
15133;DHT22;7667;51.232;17.110;2023-05-10T14:37:46;26.30;64.30
15133;DHT22;7667;51.232;17.110;2023-05-10T14:40:13;24.40;60.40
15133;DHT22;7667;51.232;17.110;2023-05-10T14:42:42;23.80;62.50
15133;DHT22;7667;51.232;17.110;2023-05-10T14:45:10;24.40;61.90
15133;DHT22;7667;51.232;17.110;2023-05-10T14:47:38;24.80;60.70
15133;DHT22;7667;51.232;17.110;2023-05-10T14:50:07;24.60;60.50
15133;DHT22;7667;51.232;17.110;2023-05-10T14:52:34;22.80;65.10
15133;DHT22;7667;51.232;17.110;2023-05-10T14:55:03;22.20;65.50
15133;DHT22;7667;51.232;17.110;2023-05-10T14:57:31;23.10;65.00
15133;DHT22;7667;51.232;17.110;2023-05-10T14:59:59;23.40;64.40
15133;DHT22;7667;51.232;17.110;2023-05-10T15:02:27;23.10;64.70
15133;DHT22;7667;51.232;17.110;2023-05-10T15:04:55;22.80;65.70
15133;DHT22;7667;51.232;17.110;2023-05-10T15:07:24;22.50;65.40
15133;DHT22;7667;51.232;17.110;2023-05-10T15:09:52;22.20;66.60
15133;DHT22;7667;51.232;17.110;2023-05-10T15:12:20;22.30;68.10
15133;DHT22;7667;51.232;17.110;2023-05-10T15:14:47;22.30;67.10
15133;DHT22;7667;51.232;17.110;2023-05-10T15:17:15;22.90;67.70
15133;DHT22;7667;51.232;17.110;2023-05-10T15:19:43;22.90;65.20
15133;DHT22;7667;51.232;17.110;2023-05-10T15:22:10;22.20;67.00
15133;DHT22;7667;51.232;17.110;2023-05-10T15:24:38;21.90;67.80
15133;DHT22;7667;51.232;17.110;2023-05-10T15:27:05;23.60;65.80
15133;DHT22;7667;51.232;17.110;2023-05-10T15:29:33;25.40;62.60
15133;DHT22;7667;51.232;17.110;2023-05-10T15:32:01;25.40;60.40
15133;DHT22;7667;51.232;17.110;2023-05-10T15:34:30;24.40;64.10
15133;DHT22;7667;51.232;17.110;2023-05-10T15:37:00;24.30;62.60
15133;DHT22;7667;51.232;17.110;2023-05-10T15:39:28;24.80;61.30
15133;DHT22;7667;51.232;17.110;2023-05-10T15:41:55;24.40;62.00
15133;DHT22;7667;51.232;17.110;2023-05-10T15:44:23;24.20;63.10
15133;DHT22;7667;51.232;17.110;2023-05-10T15:46:51;25.00;61.80
15133;DHT22;7667;51.232;17.110;2023-05-10T15:49:18;25.00;62.70
15133;DHT22;7667;51.232;17.110;2023-05-10T15:51:46;23.70;65.70
15133;DHT22;7667;51.232;17.110;2023-05-10T15:54:13;23.10;65.30
15133;DHT22;7667;51.232;17.110;2023-05-10T15:56:41;22.20;65.30
15133;DHT22;7667;51.232;17.110;2023-05-10T15:59:09;21.90;67.50
15133;DHT22;7667;51.232;17.110;2023-05-10T16:01:37;22.10;66.00
15133;DHT22;7667;51.232;17.110;2023-05-10T16:04:05;21.50;67.40
15133;DHT22;7667;51.232;17.110;2023-05-10T16:06:33;21.40;69.00
15133;DHT22;7667;51.232;17.110;2023-05-10T16:09:02;21.80;69.10
15133;DHT22;7667;51.232;17.110;2023-05-10T16:11:29;22.50;65.70
15133;DHT22;7667;51.232;17.110;2023-05-10T16:13:57;22.20;65.80
15133;DHT22;7667;51.232;17.110;2023-05-10T16:16:25;21.70;67.90
15133;DHT22;7667;51.232;17.110;2023-05-10T16:18:52;21.30;67.80
15133;DHT22;7667;51.232;17.110;2023-05-10T16:21:20;21.30;69.60
15133;DHT22;7667;51.232;17.110;2023-05-10T16:23:48;21.60;68.50
15133;DHT22;7667;51.232;17.110;2023-05-10T16:26:16;21.40;68.40
15133;DHT22;7667;51.232;17.110;2023-05-10T16:28:43;21.20;68.00
15133;DHT22;7667;51.232;17.110;2023-05-10T16:31:11;21.40;66.80
15133;DHT22;7667;51.232;17.110;2023-05-10T16:33:38;21.30;68.00
15133;DHT22;7667;51.232;17.110;2023-05-10T16:36:06;21.10;69.60